createdAt,value
2022-10-10T04:54:22.744Z,101497.47
2022-10-10T04:59:44.008Z,101493.13
2022-10-10T05:05:05.473Z,101481.19
2022-10-10T05:10:26.349Z,101468.59
2022-10-10T05:15:51.172Z,101453.09
2022-10-10T05:21:13.449Z,101445.44
2022-10-10T05:26:34.481Z,101443.94
2022-10-10T05:31:58.354Z,101431.69
2022-10-10T05:37:19.507Z,101437.56
2022-10-10T05:42:40.432Z,101417.47
2022-10-10T05:48:01.297Z,101411.50
2022-10-10T05:53:23.486Z,101418.16
2022-10-10T05:58:44.977Z,101411.72
2022-10-10T06:04:05.512Z,101412.50
2022-10-10T06:09:26.605Z,101426.00
2022-10-10T06:14:47.423Z,101406.66
2022-10-10T06:20:08.779Z,101399.44
2022-10-10T06:25:39.889Z,101397.94
2022-10-10T06:31:02.994Z,101394.13
2022-10-10T06:36:23.548Z,101390.44
2022-10-10T06:41:44.463Z,101387.13
2022-10-10T06:47:05.519Z,101387.59
2022-10-10T06:52:26.066Z,101392.56
2022-10-10T06:57:47.009Z,101376.53
2022-10-10T07:03:12.176Z,101379.75
2022-10-10T07:08:33.221Z,101374.72
2022-10-10T07:13:54.213Z,101368.28
2022-10-10T07:19:15.037Z,101376.00
2022-10-10T07:24:37.006Z,101370.09
2022-10-10T07:29:58.142Z,101370.16
2022-10-10T07:35:19.092Z,101380.88
2022-10-10T07:40:41.359Z,101367.94
2022-10-10T07:46:04.033Z,101370.56
2022-10-10T07:51:26.698Z,101365.94
2022-10-10T07:56:47.527Z,101360.50
2022-10-10T08:02:09.694Z,101345.19
2022-10-10T08:07:30.751Z,101341.81
2022-10-10T08:12:51.875Z,101325.72
2022-10-10T08:18:13.046Z,101334.81
2022-10-10T08:23:35.091Z,101312.13
2022-10-10T08:28:56.202Z,101316.44
2022-10-10T08:34:17.190Z,101320.56
2022-10-10T08:39:37.979Z,101313.97
2022-10-10T08:45:04.966Z,101312.94
2022-10-10T08:50:33.283Z,101302.66
2022-10-10T08:55:55.833Z,101297.19
2022-10-10T09:01:23.761Z,101292.03
2022-10-10T09:07:12.180Z,101297.47
2022-10-10T09:12:53.479Z,101289.97
2022-10-10T09:18:33.453Z,101294.88
2022-10-10T09:24:16.369Z,101286.25
2022-10-10T09:29:43.824Z,101278.63
2022-10-10T09:35:22.666Z,101276.63
2022-10-10T09:41:42.358Z,101264.44
2022-10-10T09:47:03.250Z,101257.16
2022-10-10T09:52:28.400Z,101242.88
2022-10-10T09:57:52.009Z,101244.78
2022-10-10T10:03:22.815Z,101241.56
2022-10-10T10:08:46.758Z,101237.00
2022-10-10T10:14:27.141Z,101230.06
2022-10-10T10:19:48.092Z,101226.19
2022-10-10T10:25:37.522Z,101224.00
2022-10-10T10:30:59.175Z,101225.94
2022-10-10T10:36:59.026Z,101227.81
2022-10-10T10:42:41.221Z,101224.44
2022-10-10T10:48:22.644Z,101218.31
2022-10-10T10:54:11.505Z,101220.84
2022-10-10T11:00:25.705Z,101209.50
2022-10-10T11:05:48.182Z,101197.09
2022-10-10T11:11:53.737Z,101186.50
2022-10-10T11:17:37.768Z,101186.28
2022-10-10T11:23:12.024Z,101181.66
2022-10-10T11:28:44.956Z,101184.97
2022-10-10T11:34:16.928Z,101163.66
2022-10-10T11:39:57.058Z,101158.72
2022-10-10T11:45:26.554Z,101143.75
2022-10-10T11:50:54.174Z,101139.19
2022-10-10T11:56:14.705Z,101137.88
2022-10-10T12:01:46.754Z,101142.34
2022-10-10T12:07:40.273Z,101136.50
2022-10-10T12:13:24.312Z,101127.63
2022-10-10T12:18:51.483Z,101126.50
2022-10-10T12:24:14.128Z,101115.53
2022-10-10T12:29:56.020Z,101110.03
2022-10-10T12:35:40.219Z,101105.19
2022-10-10T12:41:01.205Z,101119.66
2022-10-10T12:46:28.465Z,101111.47
2022-10-10T12:52:01.252Z,101111.97
2022-10-10T12:57:31.914Z,101104.25
2022-10-10T13:02:59.020Z,101085.94
2022-10-10T13:08:25.160Z,101085.06
2022-10-10T13:13:51.615Z,101081.78
2022-10-10T13:19:24.587Z,101069.28
2022-10-10T13:24:46.558Z,101075.94
2022-10-10T13:30:07.884Z,101079.44
2022-10-10T13:35:30.208Z,101079.19
2022-10-10T13:40:51.955Z,101066.19
2022-10-10T13:46:32.426Z,101062.41
2022-10-10T13:52:05.924Z,101058.47
2022-10-10T13:57:27.753Z,101057.25
2022-10-10T14:02:49.768Z,101060.72
2022-10-10T14:08:24.751Z,101054.09
2022-10-10T14:13:53.717Z,101054.50
2022-10-10T14:19:19.410Z,101064.91
2022-10-10T14:24:40.493Z,101061.16
2022-10-10T14:30:00.971Z,101053.63
2022-10-10T14:35:21.953Z,101052.91
2022-10-10T14:40:44.865Z,101041.59
2022-10-10T14:46:06.396Z,101042.72
2022-10-10T14:51:33.660Z,101033.97
2022-10-10T14:57:07.580Z,101030.28
2022-10-10T15:02:30.681Z,101037.19
2022-10-10T15:07:53.760Z,101033.59
2022-10-10T15:13:15.548Z,101020.06
2022-10-10T15:24:17.593Z,101023.72
2022-10-10T15:29:39.413Z,101033.84
2022-10-10T15:35:00.323Z,101044.03
2022-10-10T15:40:23.728Z,101042.09
2022-10-10T15:51:25.437Z,101048.69
2022-10-10T15:56:46.236Z,101053.97
2022-10-10T15:59:17.920Z,101049.00
2022-10-10T16:02:07.069Z,101052.31
2022-10-10T16:07:30.008Z,101057.44
2022-10-10T16:12:54.652Z,101060.00
2022-10-10T16:18:15.496Z,101062.44
2022-10-10T16:23:36.317Z,101063.56
2022-10-10T16:28:57.086Z,101068.97
2022-10-10T16:34:18.784Z,101071.03
2022-10-10T16:39:39.817Z,101062.50
2022-10-10T16:45:00.620Z,101062.78
2022-10-10T16:50:21.317Z,101067.44
2022-10-10T16:55:42.673Z,101063.38
2022-10-10T17:01:12.053Z,101070.56
2022-10-10T17:06:37.467Z,101063.03
2022-10-10T17:11:58.471Z,101064.19
2022-10-10T17:17:19.406Z,101067.97
2022-10-10T17:22:41.283Z,101068.22
2022-10-10T17:28:02.112Z,101072.00
2022-10-10T17:33:23.524Z,101070.50
2022-10-10T17:38:44.521Z,101072.38
2022-10-10T17:44:10.308Z,101069.34
2022-10-10T17:49:31.417Z,101065.16
2022-10-10T17:54:52.392Z,101069.66
2022-10-10T18:00:13.684Z,101072.53
2022-10-10T18:05:36.505Z,101062.03
2022-10-10T18:10:57.471Z,101068.78
2022-10-10T18:16:20.921Z,101070.78
2022-10-10T18:21:41.702Z,101066.28
2022-10-10T18:27:02.569Z,101069.81
2022-10-10T18:32:23.581Z,101065.84
2022-10-10T18:37:44.331Z,101067.53
2022-10-10T18:43:05.363Z,101068.84
2022-10-10T18:48:26.086Z,101088.91
2022-10-10T18:53:46.938Z,101083.59
2022-10-10T18:59:12.901Z,101098.13
2022-10-10T19:04:34.595Z,101110.53
2022-10-10T19:09:55.217Z,101113.00
2022-10-10T19:15:16.318Z,101116.31
2022-10-10T19:20:39.196Z,101118.16
2022-10-10T19:26:09.009Z,101118.69
2022-10-10T19:31:30.915Z,101116.53
2022-10-10T19:36:52.053Z,101106.25
2022-10-10T19:42:13.049Z,101123.00
2022-10-10T19:47:34.225Z,101124.41
2022-10-10T19:53:01.840Z,101121.75
2022-10-10T19:58:25.390Z,101138.50
2022-10-10T20:03:48.083Z,101133.72
2022-10-10T20:09:11.140Z,101139.06
2022-10-10T20:14:32.514Z,101143.25
2022-10-10T20:19:53.434Z,101148.84
2022-10-10T20:25:14.333Z,101147.69
2022-10-10T20:30:40.720Z,101152.59
2022-10-10T20:36:02.169Z,101152.16
2022-10-10T20:41:25.994Z,101162.78
2022-10-10T20:46:47.187Z,101165.88
2022-10-10T20:52:07.939Z,101181.75
2022-10-10T20:57:29.201Z,101187.09
2022-10-10T21:02:50.098Z,101200.41
2022-10-10T21:08:10.736Z,101210.31
2022-10-10T21:13:33.724Z,101210.47
2022-10-10T21:18:58.630Z,101229.50
2022-10-10T21:24:19.742Z,101240.16
2022-10-10T21:29:40.733Z,101241.13
2022-10-10T21:35:01.519Z,101260.13
2022-10-10T21:40:22.524Z,101258.31
2022-10-10T21:45:43.712Z,101260.75
2022-10-10T21:51:04.954Z,101272.69
2022-10-10T21:56:26.464Z,101287.25
